Latest Weather Observations for Shepparton

IDV60801

Issued at 8:02 pm EST Tuesday 28 July 2015 (issued every 30 minutes, with the page automatically refreshed every 10 minutes)

About weather observations | Map of weather stations | Latest weather observations for VIC | Other Formats
Station Details ID: 081125 Name: SHEPPARTON AIRPORT Lat: -36.43 Lon: 145.39 Height: 113.9 m
Data from the previous 72 hours. | See also: Recent months at Shepparton
Date/Time
EST
Temp
°C
App
Temp
°C
Dew
Point
Rel
Hum
%
Delta-T
°C
Wind Press
QNH
hPa
Press
MSL
hPa
Rain
since 9 am
mm
Dir
 
Spd
km/h
Gust
km/h
Spd
kts
Gust
kts
28/08:00pm 5.4 4.2 4.8 96 0.3 CALM 0 0 0 0 1034.5 1034.8 0.0
28/07:30pm 6.0 4.9 5.1 94 0.4 CALM 0 0 0 0 1034.5 1034.8 0.0
28/07:00pm 6.9 5.9 5.4 90 0.7 CALM 0 0 0 0 1034.3 1034.6 0.0
28/06:30pm 7.1 5.5 4.6 84 1.1 WNW 2 6 1 3 1033.9 1034.2 0.0
28/06:00pm 8.9 6.7 5.1 77 1.7 WNW 6 7 3 4 1033.8 1034.1 0.0
28/05:30pm 10.6 8.5 6.0 73 2.1 WNW 6 7 3 4 1033.6 1033.9 0.0
28/05:00pm 11.6 8.1 5.3 65 2.9 WNW 13 19 7 10 1033.6 1033.9 0.0
28/04:30pm 13.0 9.7 6.4 64 3.2 WNW 13 19 7 10 1033.6 1033.9 0.0
28/04:00pm 13.1 10.5 6.2 63 3.3 WNW 9 13 5 7 1033.7 1034.0 0.0
28/03:30pm 12.9 9.4 5.6 61 3.4 WSW 13 22 7 12 1033.8 1034.1 0.0
28/03:00pm 13.1 9.9 6.9 66 3.0 SSW 13 19 7 10 1033.7 1034.0 0.0
28/02:30pm 12.8 9.5 6.2 64 3.1 SSW 13 19 7 10 1033.7 1034.0 0.0
28/02:00pm 12.9 9.7 6.7 66 3.0 W 13 17 7 9 1033.9 1034.2 0.0
28/01:30pm 12.5 10.3 6.3 66 3.0 SW 7 13 4 7 1034.0 1034.3 0.0
28/01:00pm 11.5 8.6 6.4 71 2.4 SSW 11 19 6 10 1034.4 1034.7 0.0
28/12:30pm 11.7 9.8 6.8 72 2.3 WSW 6 15 3 8 1034.8 1035.1 0.0
28/12:00pm 11.3 8.8 6.6 73 2.2 SW 9 15 5 8 1035.5 1035.8 0.0
28/11:30am 10.2 6.5 6.4 77 1.8 SW 15 19 8 10 1036.0 1036.3 0.0
28/11:00am 10.3 6.3 6.6 78 1.7 WSW 17 22 9 12 1036.2 1036.5 0.0
28/10:30am 9.9 6.0 7.2 83 1.3 WSW 17 22 9 12 1036.4 1036.7 0.0
28/10:00am 8.6 5.7 6.6 87 0.9 WSW 11 15 6 8 1036.3 1036.6 0.0
28/09:30am 7.6 4.2 5.7 88 0.9 W 13 19 7 10 1036.0 1036.3 0.0
28/09:00am 6.8 3.7 5.4 91 0.6 W 11 13 6 7 1035.8 1036.1 0.0
28/08:30am 6.3 3.1 5.1 92 0.5 W 11 15 6 8 1035.5 1035.8 0.0
28/08:00am 6.1 2.9 5.2 94 0.4 W 11 15 6 8 1035.1 1035.4 0.0
28/07:30am 5.7 2.4 4.8 94 0.4 W 11 13 6 7 1034.7 1035.0 0.0
28/07:00am 5.7 2.4 4.7 93 0.4 W 11 17 6 9 1034.2 1034.5 0.0
28/06:30am 5.7 2.0 4.7 93 0.4 W 13 17 7 9 1034.2 1034.5 0.0
28/06:00am 5.6 1.9 4.7 94 0.4 W 13 15 7 8 1034.0 1034.3 0.0
28/05:30am 5.6 1.9 4.7 94 0.4 W 13 17 7 9 1033.6 1033.9 0.0
28/05:00am 5.3 0.8 4.4 94 0.4 W 17 20 9 11 1033.5 1033.8 0.0
28/04:30am 5.4 1.7 4.5 94 0.4 W 13 17 7 9 1033.3 1033.6 0.0
28/04:00am 5.3 1.6 4.6 95 0.3 WSW 13 17 7 9 1033.2 1033.5 0.0
28/03:30am 4.9 1.2 4.2 95 0.3 W 13 17 7 9 1033.1 1033.4 0.0
28/03:00am 5.0 0.9 4.6 97 0.2 W 15 19 8 10 1033.1 1033.4 0.0
28/02:30am 4.2 0.8 4.1 99 0.0 W 11 13 6 7 1033.0 1033.3 0.0
28/02:00am 3.3 0.5 3.0 98 0.1 W 7 9 4 5 1032.9 1033.2 0.0
28/01:30am 3.5 0.4 3.4 99 0.0 WNW 9 11 5 6 1032.6 1032.9 0.0
28/01:00am 3.3 0.6 2.9 97 0.2 NW 6 7 3 4 1032.5 1032.8 0.0
28/12:30am 3.7 0.9 3.0 95 0.3 NW 7 9 4 5 1032.4 1032.7 0.0
28/12:00am 4.4 1.3 3.5 94 0.4 WNW 9 11 5 6 1032.3 1032.6 0.0
 
Date/Time
EST
Temp
°C
App
Temp
°C
Dew
Point
Rel
Hum
%
Delta-T
°C
Wind Press
QNH
hPa
Press
MSL
hPa
Rain
since 9 am
mm
Dir
 
Spd
km/h
Gust
km/h
Spd
kts
Gust
kts
27/11:30pm 4.7 1.3 4.0 95 0.3 W 11 13 6 7 1032.4 1032.7 0.0
27/11:00pm 4.6 1.2 4.0 96 0.3 W 11 13 6 7 1032.5 1032.8 0.0
27/10:30pm 5.0 2.0 4.1 94 0.4 WNW 9 13 5 7 1032.6 1032.9 0.0
27/10:00pm 5.5 2.6 4.5 93 0.4 W 9 11 5 6 1032.4 1032.7 0.0
27/09:30pm 6.2 3.3 4.5 89 0.7 WNW 9 11 5 6 1032.2 1032.5 0.0
27/09:00pm 6.9 3.6 4.7 86 1.0 W 11 15 6 8 1032.1 1032.4 0.0
27/08:30pm 8.3 4.8 5.4 82 1.3 WSW 13 19 7 10 1032.0 1032.3 0.0
27/08:00pm 8.3 4.8 5.6 83 1.2 WNW 13 17 7 9 1031.9 1032.2 0.0
27/07:30pm 8.1 4.2 5.4 83 1.2 WNW 15 19 8 10 1031.6 1031.9 0.0
27/07:00pm 7.9 4.0 5.4 84 1.1 WNW 15 20 8 11 1031.1 1031.4 0.0
27/06:30pm 7.7 3.4 5.2 84 1.1 WNW 17 22 9 12 1030.9 1031.2 0.0
27/06:00pm 7.7 4.4 4.7 81 1.3 NW 11 15 6 8 1030.7 1030.9 0.0
27/05:30pm 8.4 4.7 4.6 77 1.7 WNW 13 19 7 10 1030.4 1030.6 0.0
27/05:00pm 9.3 5.3 4.7 73 2.0 WNW 15 20 8 11 1030.0 1030.2 0.0
27/04:30pm 9.5 5.1 4.5 71 2.2 WNW 17 26 9 14 1029.9 1030.1 0.0
27/04:00pm 9.8 5.0 4.8 71 2.2 W 19 26 10 14 1029.8 1030.0 0.0
27/03:30pm 9.9 4.9 4.7 70 2.3 W 20 28 11 15 1029.7 1029.9 0.0
27/03:00pm 10.1 5.3 4.9 70 2.3 W 19 26 10 14 1029.5 1029.7 0.0
27/02:30pm 9.6 4.6 4.6 71 2.2 W 20 28 11 15 1029.5 1029.7 0.0
27/02:00pm 9.8 4.0 4.6 70 2.3 W 24 33 13 18 1029.4 1029.6 0.0
27/01:30pm 9.8 4.7 4.2 68 2.5 WSW 20 30 11 16 1029.4 1029.6 0.0
27/01:00pm 9.7 3.8 4.1 68 2.5 WSW 24 33 13 18 1029.5 1029.7 0.0
27/12:30pm 9.7 4.0 4.7 71 2.2 W 24 37 13 20 1029.8 1030.0 0.0
27/12:00pm 9.7 4.7 4.5 70 2.3 WSW 20 28 11 15 1029.9 1030.1 0.0
27/11:30am 9.1 3.3 4.3 72 2.1 W 24 32 13 17 1030.1 1030.3 0.0
27/11:00am 8.4 3.6 4.4 76 1.7 W 19 28 10 15 1030.4 1030.6 0.0
27/10:30am 7.1 1.6 4.1 81 1.3 W 22 28 12 15 1030.3 1030.5 0.0
27/10:00am 6.1 1.8 3.4 83 1.1 WNW 15 20 8 11 1029.9 1030.1 0.0
27/09:30am 4.3 -0.1 2.8 90 0.6 W 15 20 8 11 1029.9 1030.1 0.0
27/09:00am 3.5 -0.5 2.6 94 0.4 W 13 17 7 9 1029.5 1029.7 0.0
27/08:30am 2.1 -2.1 1.8 98 0.1 W 13 17 7 9 1029.2 1029.4 0.0
27/08:00am 1.2 -2.3 1.1 99 0.0 WNW 9 13 5 7 1028.8 1029.0 0.0
27/07:30am 0.9 -2.7 0.8 99 0.0 WNW 9 13 5 7 1028.3 1028.6 0.0
27/07:00am 0.8 -2.8 0.7 99 0.0 W 9 15 5 8 1027.8 1028.1 0.0
27/06:30am 1.2 -2.7 0.9 98 0.1 WNW 11 13 6 7 1027.2 1027.5 0.0
27/06:00am 1.3 -3.0 1.0 98 0.1 W 13 15 7 8 1026.8 1027.1 0.0
27/05:30am 1.4 -2.5 1.1 98 0.1 WNW 11 13 6 7 1026.6 1026.9 0.0
27/05:00am 1.5 -2.8 1.1 97 0.2 W 13 17 7 9 1026.2 1026.5 0.0
27/04:30am 1.6 -2.3 1.0 96 0.2 W 11 17 6 9 1025.8 1026.1 0.0
27/04:00am 2.0 -2.6 1.4 96 0.2 W 15 20 8 11 1025.7 1026.0 0.0
27/03:30am 2.3 -2.3 1.7 96 0.2 W 15 19 8 10 1025.3 1025.6 0.0
27/03:00am 2.3 -1.9 1.6 95 0.3 W 13 19 7 10 1025.3 1025.6 0.0
27/02:30am 2.6 -2.0 1.7 94 0.4 W 15 20 8 11 1025.2 1025.5 0.0
27/02:00am 3.1 -1.1 1.9 92 0.5 W 13 17 7 9 1025.0 1025.3 0.0
27/01:30am 3.4 -0.7 2.4 93 0.4 W 13 17 7 9 1024.9 1025.2 0.0
27/01:00am 3.1 -1.8 1.9 92 0.5 W 17 20 9 11 1024.7 1025.0 0.0
27/12:30am 3.0 -1.2 1.8 92 0.5 W 13 20 7 11 1024.6 1024.9 0.0
27/12:00am 3.6 -0.9 2.1 90 0.6 W 15 22 8 12 1024.4 1024.7 0.0
 
Date/Time
EST
Temp
°C
App
Temp
°C
Dew
Point
Rel
Hum
%
Delta-T
°C
Wind Press
QNH
hPa
Press
MSL
hPa
Rain
since 9 am
mm
Dir
 
Spd
km/h
Gust
km/h
Spd
kts
Gust
kts
26/11:30pm 3.6 -1.3 2.0 89 0.6 WNW 17 24 9 13 1024.4 1024.7 0.0
26/11:00pm 3.9 -0.6 1.9 87 0.8 WNW 15 20 8 11 1024.1 1024.4 0.0
26/10:30pm 4.0 -0.1 2.0 87 0.8 WNW 13 17 7 9 1023.6 1023.9 0.0
26/10:00pm 3.9 -0.7 1.8 86 0.8 WNW 15 17 8 9 1023.3 1023.5 0.0
26/09:30pm 4.7 0.9 1.9 82 1.1 WNW 11 19 6 10 1023.0 1023.2 0.0
26/09:00pm 5.5 0.6 2.0 78 1.4 WNW 17 24 9 13 1022.6 1022.8 0.0
26/08:30pm 5.6 0.3 1.7 76 1.6 WNW 19 22 10 12 1022.2 1022.4 0.0
26/08:00pm 5.6 1.0 1.7 76 1.6 WNW 15 19 8 10 1021.8 1022.0 0.0
26/07:30pm 6.2 1.3 1.7 73 1.8 WNW 17 24 9 13 1021.4 1021.6 0.0
26/07:00pm 6.6 1.7 2.1 73 1.8 WNW 17 24 9 13 1020.7 1020.9 0.0
26/06:30pm 7.1 1.8 1.8 69 2.2 W 19 24 10 13 1020.2 1020.4 0.0
26/06:00pm 7.6 2.3 1.7 66 2.4 W 19 24 10 13 1019.8 1020.0 0.0
26/05:30pm 8.1 3.2 2.1 66 2.5 W 17 22 9 12 1019.1 1019.4 0.0
26/05:00pm 9.1 2.8 1.3 58 3.2 W 24 33 13 18 1018.5 1018.8 0.0
26/04:31pm 9.9 2.6 0.0 50 4.0 W 28 46 15 25 1018.0 1018.3 0.0
26/04:30pm 10.0 3.1 0.3 51 3.9 W 26 43 14 23 1018.0 1018.3 0.0
26/04:00pm 10.0 2.4 0.3 51 3.9 W 30 41 16 22 1017.9 1018.2 0.0
26/03:36pm 10.8 3.6 0.8 50 4.2 W 28 46 15 25 1017.7 1018.0 0.0
26/03:30pm 10.7 3.2 1.0 51 4.0 W 30 41 16 22 1017.6 1017.9 0.0
26/03:00pm 10.7 2.3 1.5 53 3.9 W 35 48 19 26 1017.2 1017.5 0.0
26/02:32pm 10.7 2.6 1.3 52 3.9 W 33 52 18 28 1016.9 1017.2 0.0
26/02:30pm 11.1 3.2 2.2 54 3.8 W 33 48 18 26 1017.0 1017.3 0.0
26/02:00pm 10.7 2.0 2.0 55 3.7 W 37 50 20 27 1016.6 1016.9 0.0
26/01:52pm 10.5 3.1 1.9 55 3.7 W 30 50 16 27 1016.5 1016.8 0.0
26/01:30pm 10.6 3.1 3.4 61 3.2 W 32 46 17 25 1016.5 1016.8 0.0
26/01:00pm 10.1 2.5 2.7 60 3.2 W 32 50 17 27 1016.4 1016.7 0.0
26/12:55pm 10.0 2.8 2.8 61 3.1 W 30 48 16 26 1016.4 1016.7 0.0
26/12:30pm 10.2 2.0 2.8 60 3.2 W 35 48 19 26 1016.5 1016.8 0.0
26/12:00pm 10.4 3.0 4.1 65 2.8 W 32 43 17 23 1016.7 1017.0 0.0
26/11:30am 9.6 1.4 2.5 61 3.0 W 35 48 19 26 1016.9 1017.2 0.0
26/11:01am 9.4 1.8 2.7 63 2.9 W 32 52 17 28 1016.8 1017.1 0.0
26/11:00am 9.6 2.1 3.4 65 2.7 W 32 46 17 25 1016.9 1017.2 0.0
26/10:31am 9.1 1.4 3.5 68 2.4 W 33 52 18 28 1016.7 1017.0 0.0
26/10:30am 9.0 1.3 3.6 69 2.4 W 33 44 18 24 1016.7 1017.0 0.0
26/10:00am 8.9 1.4 3.7 70 2.3 W 32 50 17 27 1016.3 1016.6 0.0
26/09:59am 9.0 2.0 4.0 71 2.2 W 30 48 16 26 1016.3 1016.6 0.0
26/09:30am 8.8 2.7 4.6 75 1.9 WNW 26 35 14 19 1016.2 1016.4 0.0
26/09:00am 8.6 3.4 5.4 80 1.4 WNW 22 35 12 19 1016.0 1016.2 1.2
26/08:30am 8.2 3.3 5.1 81 1.4 WNW 20 28 11 15 1015.7 1015.9 1.2
26/08:00am 8.4 3.9 6.2 86 1.0 WNW 19 28 10 15 1015.0 1015.2 1.2
26/07:30am 8.4 5.7 7.2 92 0.6 NW 11 17 6 9 1014.4 1014.6 1.2
26/07:00am 8.6 4.6 6.6 87 0.9 WNW 17 24 9 13 1014.1 1014.3 1.2
26/06:30am 8.7 4.5 7.3 91 0.7 WNW 19 28 10 15 1013.7 1013.9 1.2
26/06:00am 8.5 6.0 8.1 97 0.2 NW 11 17 6 9 1013.2 1013.4 1.2
26/05:51am 8.6 5.3 8.2 97 0.2 WNW 15 22 8 12 1013.0 1013.2 1.0
26/05:42am 8.6 5.0 8.3 98 0.1 WNW 17 24 9 13 1013.0 1013.2 1.0
26/05:30am 8.9 5.0 8.8 99 0.0 WNW 19 30 10 16 1013.2 1013.4 1.0
26/05:13am 9.1 5.9 8.6 97 0.2 WNW 15 22 8 12 1013.1 1013.3 0.4
26/05:04am 9.1 5.5 8.5 96 0.3 WNW 17 22 9 12 1012.9 1013.1 0.4
26/05:03am 9.1 5.9 8.5 96 0.3 WNW 15 20 8 11 1013.0 1013.2 0.4
26/05:00am 9.1 5.9 8.5 96 0.3 WNW 15 20 8 11 1012.9 1013.1 0.4
26/04:44am 9.1 5.1 8.3 95 0.4 WNW 19 26 10 14 1012.6 1012.8 0.4
26/04:42am 9.1 5.1 8.2 94 0.4 WNW 19 26 10 14 1012.6 1012.8 0.4
26/04:30am 9.3 4.3 7.9 91 0.7 WNW 24 33 13 18 1012.6 1012.8 0.2
26/04:28am 9.4 4.0 7.8 90 0.8 WNW 26 37 14 20 1012.6 1012.8 0.2
26/04:00am 10.5 5.3 7.4 81 1.5 NW 24 37 13 20 1012.4 1012.6 0.2
26/03:30am 10.6 5.0 7.3 80 1.6 NW 26 37 14 20 1012.2 1012.4 0.2
26/03:00am 9.2 5.2 6.5 83 1.3 N 17 20 9 11 1012.2 1012.4 0.2
26/02:30am 8.9 3.8 6.2 83 1.2 N 22 30 12 16 1012.4 1012.6 0.2
26/02:00am 9.5 4.0 5.7 77 1.7 N 24 35 13 19 1012.9 1013.1 0.0
26/01:30am 9.5 3.6 5.7 77 1.7 N 26 35 14 19 1012.9 1013.1 0.0
26/01:00am 9.4 3.5 5.8 78 1.7 N 26 33 14 18 1013.2 1013.4 0.0
26/12:30am 9.9 3.5 5.3 73 2.1 N 28 41 15 22 1013.5 1013.7 0.0
26/12:00am 9.7 3.3 5.3 74 2.0 N 28 44 15 24 1013.6 1013.8 0.0
 
Date/Time
EST
Temp
°C
App
Temp
°C
Dew
Point
Rel
Hum
%
Delta-T
°C
Wind Press
QNH
hPa
Press
MSL
hPa
Rain
since 9 am
mm
Dir
 
Spd
km/h
Gust
km/h
Spd
kts
Gust
kts
25/11:30pm 10.0 3.3 5.6 74 2.0 N 30 39 16 21 1014.1 1014.3 0.0
25/11:00pm 10.0 4.1 6.0 76 1.9 N 26 37 14 20 1014.7 1014.9 0.0
25/10:30pm 10.3 4.1 6.1 75 2.0 N 28 39 15 21 1014.8 1015.0 0.0
25/10:00pm 10.1 4.7 6.3 77 1.8 N 24 33 13 18 1015.0 1015.2 0.0
25/09:30pm 10.3 5.7 6.6 78 1.7 N 20 33 11 18 1015.3 1015.5 0.0
25/09:00pm 9.2 5.2 6.5 83 1.3 NNE 17 22 9 12 1015.6 1015.8 0.0
25/08:30pm 8.9 4.8 6.0 82 1.3 NNE 17 22 9 12 1016.1 1016.3 0.0

Other Formats:

Comma delimited format used in spreadsheet applications
http://www.bom.gov.au/fwo/IDV60801/IDV60801.94875.axf

JavaScript Object Notation format (JSON) in row-major order
http://www.bom.gov.au/fwo/IDV60801/IDV60801.94875.json